createdAt,value
2022-11-24T00:00:17.472Z,5.58
2022-11-24T00:01:17.485Z,5.57
2022-11-24T00:02:17.592Z,5.57
2022-11-24T00:03:17.533Z,5.57
2022-11-24T00:04:17.425Z,5.57
2022-11-24T00:05:17.405Z,5.56
2022-11-24T00:06:17.391Z,5.56
2022-11-24T00:07:17.509Z,5.55
2022-11-24T00:08:17.389Z,5.55
2022-11-24T00:09:17.360Z,5.55
2022-11-24T00:10:17.341Z,5.55
2022-11-24T00:11:17.376Z,5.54
2022-11-24T00:12:17.344Z,5.53
2022-11-24T00:13:17.307Z,5.52
2022-11-24T00:14:17.297Z,5.50
2022-11-24T00:15:17.295Z,5.50
2022-11-24T00:16:17.317Z,5.49
2022-11-24T00:17:17.290Z,5.49
2022-11-24T00:18:17.253Z,5.49
2022-11-24T00:19:19.967Z,5.49
2022-11-24T00:20:17.249Z,5.50
2022-11-24T00:21:17.236Z,5.54
2022-11-24T00:22:17.291Z,5.57
2022-11-24T00:23:17.205Z,5.59
2022-11-24T00:24:17.184Z,5.60
2022-11-24T00:25:17.179Z,5.60
2022-11-24T00:26:17.166Z,5.60
2022-11-24T00:27:17.142Z,5.60
2022-11-24T00:28:17.159Z,5.60
2022-11-24T00:29:17.133Z,5.60
2022-11-24T00:30:17.116Z,5.60
2022-11-24T00:31:17.742Z,5.60
2022-11-24T00:32:17.177Z,5.60
2022-11-24T00:33:17.090Z,5.60
2022-11-24T00:34:17.114Z,5.60
2022-11-24T00:35:17.061Z,5.60
2022-11-24T00:36:17.044Z,5.60
2022-11-24T00:37:17.059Z,5.60
2022-11-24T00:38:17.018Z,5.60
2022-11-24T00:39:17.029Z,5.61
2022-11-24T00:40:16.994Z,5.61
2022-11-24T00:41:16.998Z,5.62
2022-11-24T00:42:16.982Z,5.62
2022-11-24T00:43:16.970Z,5.63
2022-11-24T00:44:16.996Z,5.63
2022-11-24T00:45:16.950Z,5.63
2022-11-24T00:46:17.004Z,5.64
2022-11-24T00:47:17.000Z,5.65
2022-11-24T00:48:16.931Z,5.65
2022-11-24T00:49:16.932Z,5.66
2022-11-24T00:50:16.914Z,5.66
2022-11-24T00:51:16.927Z,5.66
2022-11-24T00:52:16.865Z,5.66
2022-11-24T00:53:16.853Z,5.66
2022-11-24T00:54:16.854Z,5.66
2022-11-24T00:55:16.827Z,5.66
2022-11-24T00:56:16.814Z,5.66
2022-11-24T00:57:16.808Z,5.66
2022-11-24T00:58:16.794Z,5.66
2022-11-24T00:59:16.787Z,5.66
2022-11-24T01:00:16.794Z,5.67
2022-11-24T01:01:16.836Z,5.69
2022-11-24T01:02:16.787Z,5.71
2022-11-24T01:03:16.739Z,5.73
2022-11-24T01:04:16.759Z,5.74
2022-11-24T01:05:16.729Z,5.75
2022-11-24T01:06:16.720Z,5.75
2022-11-24T01:07:16.781Z,5.77
2022-11-24T01:08:16.710Z,5.79
2022-11-24T01:09:16.709Z,5.81
2022-11-24T01:10:16.678Z,5.84
2022-11-24T01:11:16.669Z,5.86
2022-11-24T01:12:16.639Z,5.89
2022-11-24T01:13:16.671Z,5.92
2022-11-24T01:14:16.609Z,5.97
2022-11-24T01:15:16.637Z,6.01
2022-11-24T01:16:16.637Z,6.04
2022-11-24T01:17:16.607Z,6.07
2022-11-24T01:18:16.571Z,6.09
2022-11-24T01:19:16.548Z,6.11
2022-11-24T01:20:16.535Z,6.11
2022-11-24T01:21:16.531Z,6.12
2022-11-24T01:22:16.525Z,6.14
2022-11-24T01:23:16.532Z,6.15
2022-11-24T01:24:16.495Z,6.17
2022-11-24T01:25:16.482Z,6.19
2022-11-24T01:26:16.493Z,6.22
2022-11-24T01:27:16.453Z,6.25
2022-11-24T01:28:16.439Z,6.28
2022-11-24T01:29:16.441Z,6.30
2022-11-24T01:30:16.434Z,6.32
2022-11-24T01:31:16.520Z,6.34
2022-11-24T01:32:16.401Z,6.35
2022-11-24T01:33:16.392Z,6.36
2022-11-24T01:34:16.371Z,6.37
2022-11-24T01:35:16.367Z,6.38
2022-11-24T01:36:16.373Z,6.39
2022-11-24T01:37:16.329Z,6.40
2022-11-24T01:38:16.323Z,6.40
2022-11-24T01:39:16.331Z,6.41
2022-11-24T01:40:16.292Z,6.41
2022-11-24T01:41:16.284Z,6.41
2022-11-24T01:42:16.297Z,6.41
2022-11-24T01:43:16.285Z,6.41
2022-11-24T01:44:16.262Z,6.41
2022-11-24T01:45:16.240Z,6.42
2022-11-24T01:46:16.427Z,6.42
2022-11-24T01:47:16.222Z,6.41
2022-11-24T01:48:16.215Z,6.41
2022-11-24T01:49:16.202Z,6.41
2022-11-24T01:50:16.180Z,6.41
2022-11-24T01:51:16.168Z,6.40
2022-11-24T01:52:16.157Z,6.40
2022-11-24T01:53:16.160Z,6.40
2022-11-24T01:54:16.277Z,6.40
2022-11-24T01:55:16.134Z,6.40
2022-11-24T01:56:16.109Z,6.40
2022-11-24T01:57:16.145Z,6.39
2022-11-24T01:58:16.120Z,6.40
2022-11-24T01:59:16.082Z,6.40
2022-11-24T02:00:16.067Z,6.40
2022-11-24T02:01:16.248Z,6.39
2022-11-24T02:02:16.105Z,6.39
2022-11-24T02:03:16.020Z,6.40
2022-11-24T02:04:16.026Z,6.40
2022-11-24T02:05:16.028Z,6.41
2022-11-24T02:06:15.998Z,6.42
2022-11-24T02:07:16.032Z,6.43
2022-11-24T02:08:15.972Z,6.43
2022-11-24T02:09:15.969Z,6.44
2022-11-24T02:10:15.944Z,6.44
2022-11-24T02:11:15.946Z,6.46
2022-11-24T02:12:15.914Z,6.47
2022-11-24T02:13:15.909Z,6.48
2022-11-24T02:14:15.912Z,6.48
2022-11-24T02:15:15.891Z,6.49
2022-11-24T02:16:15.912Z,6.49
2022-11-24T02:17:15.868Z,6.49
2022-11-24T02:18:15.870Z,6.49
2022-11-24T02:19:15.851Z,6.49
2022-11-24T02:20:15.821Z,6.49
2022-11-24T02:21:15.824Z,6.49
2022-11-24T02:22:15.810Z,6.49
2022-11-24T02:23:15.777Z,6.49
2022-11-24T02:24:15.791Z,6.48
2022-11-24T02:25:15.776Z,6.48
2022-11-24T02:26:15.751Z,6.47
2022-11-24T02:27:15.737Z,6.47
2022-11-24T02:28:15.742Z,6.47
2022-11-24T02:29:15.752Z,6.46
2022-11-24T02:30:15.730Z,6.46
2022-11-24T02:31:15.755Z,6.46
2022-11-24T02:32:15.697Z,6.46
2022-11-24T02:33:15.696Z,6.45
2022-11-24T02:34:15.692Z,6.45
2022-11-24T02:35:15.658Z,6.45
2022-11-24T02:36:15.642Z,6.45
2022-11-24T02:37:15.633Z,6.45
2022-11-24T02:38:15.616Z,6.46
2022-11-24T02:39:15.630Z,6.47
2022-11-24T02:40:15.589Z,6.49
2022-11-24T02:41:15.597Z,6.52
2022-11-24T02:42:15.565Z,6.54
2022-11-24T02:43:15.564Z,6.55
2022-11-24T02:44:15.587Z,6.57
2022-11-24T02:45:15.546Z,6.59
2022-11-24T02:46:15.572Z,6.62
2022-11-24T02:47:15.515Z,6.67
2022-11-24T02:48:15.501Z,6.70
2022-11-24T02:49:15.513Z,6.73
2022-11-24T02:50:15.470Z,6.76
2022-11-24T02:51:15.494Z,6.77
2022-11-24T02:52:15.458Z,6.78
2022-11-24T02:53:15.436Z,6.80
2022-11-24T02:54:15.461Z,6.82
2022-11-24T02:55:15.427Z,6.85
2022-11-24T02:56:15.420Z,6.89
2022-11-24T02:57:15.403Z,6.93
2022-11-24T02:58:15.412Z,6.97
2022-11-24T02:59:15.370Z,7.02
2022-11-24T03:00:15.380Z,7.07
2022-11-24T03:01:15.424Z,7.11
2022-11-24T03:02:15.415Z,7.12
2022-11-24T03:03:15.401Z,7.12
2022-11-24T03:04:15.364Z,7.12
2022-11-24T03:05:15.311Z,7.11
2022-11-24T03:06:15.295Z,7.10
2022-11-24T03:07:15.376Z,7.10
2022-11-24T03:08:15.265Z,7.09
2022-11-24T03:09:15.250Z,7.08
2022-11-24T03:10:15.241Z,7.07
2022-11-24T03:11:15.254Z,7.07
2022-11-24T03:12:15.226Z,7.06
2022-11-24T03:13:15.221Z,7.06
2022-11-24T03:14:15.192Z,7.06
2022-11-24T03:15:15.179Z,7.05
2022-11-24T03:16:15.213Z,7.05
2022-11-24T03:17:15.184Z,7.04
2022-11-24T03:18:15.154Z,7.03
2022-11-24T03:19:15.137Z,7.03
2022-11-24T03:20:15.136Z,7.03
2022-11-24T03:21:15.115Z,7.02
2022-11-24T03:22:15.118Z,7.02
2022-11-24T03:23:15.106Z,7.02
2022-11-24T03:24:15.096Z,7.02
2022-11-24T03:25:15.075Z,7.02
2022-11-24T03:26:15.052Z,7.03
2022-11-24T03:27:15.054Z,7.04
2022-11-24T03:28:15.089Z,7.06
2022-11-24T03:29:15.031Z,7.07
2022-11-24T03:30:15.027Z,7.09
2022-11-24T03:31:15.104Z,7.12
2022-11-24T03:32:14.987Z,7.14
2022-11-24T03:33:14.966Z,7.15
2022-11-24T03:34:14.979Z,7.16
2022-11-24T03:35:14.960Z,7.16
2022-11-24T03:36:14.940Z,7.16
2022-11-24T03:37:14.923Z,7.15
2022-11-24T03:38:14.917Z,7.14
2022-11-24T03:39:14.921Z,7.13
2022-11-24T03:40:14.900Z,7.13
2022-11-24T03:41:14.900Z,7.13
2022-11-24T03:42:14.887Z,7.12
2022-11-24T03:43:14.876Z,7.12
2022-11-24T03:44:14.855Z,7.12
2022-11-24T03:45:45.559Z,7.12
2022-11-24T03:46:15.900Z,7.13
2022-11-24T03:47:14.815Z,7.13
2022-11-24T03:48:14.800Z,7.13
2022-11-24T03:49:14.795Z,7.13
2022-11-24T03:50:14.778Z,7.13
2022-11-24T03:51:14.769Z,7.15
2022-11-24T03:52:14.770Z,7.16
2022-11-24T03:53:14.741Z,7.17
2022-11-24T03:54:14.736Z,7.19
2022-11-24T03:55:14.725Z,7.21
2022-11-24T03:56:14.721Z,7.23
2022-11-24T03:57:14.699Z,7.27
2022-11-24T03:58:14.686Z,7.31
2022-11-24T03:59:14.700Z,7.34
2022-11-24T04:00:14.669Z,7.36
2022-11-24T04:01:14.693Z,7.38
2022-11-24T04:02:14.658Z,7.39
2022-11-24T04:03:14.675Z,7.41
2022-11-24T04:04:14.623Z,7.42
2022-11-24T04:05:14.593Z,7.43
2022-11-24T04:06:14.650Z,7.43
2022-11-24T04:07:14.610Z,7.43
2022-11-24T04:08:14.569Z,7.42
2022-11-24T04:09:14.576Z,7.42
2022-11-24T04:10:14.556Z,7.43
2022-11-24T04:11:14.551Z,7.44
2022-11-24T04:12:14.526Z,7.45
2022-11-24T04:13:14.530Z,7.46
2022-11-24T04:14:14.491Z,7.47
2022-11-24T04:15:14.492Z,7.49
2022-11-24T04:16:14.538Z,7.52
2022-11-24T04:17:14.466Z,7.56
2022-11-24T04:18:14.450Z,7.61
2022-11-24T04:19:14.456Z,7.65
2022-11-24T04:20:14.422Z,7.69
2022-11-24T04:21:14.454Z,7.73
2022-11-24T04:22:14.411Z,7.76
2022-11-24T04:23:14.394Z,7.79
2022-11-24T04:24:14.378Z,7.81
2022-11-24T04:25:14.419Z,7.82
2022-11-24T04:26:14.380Z,7.84
2022-11-24T04:27:14.339Z,7.85
2022-11-24T04:28:14.343Z,7.86
2022-11-24T04:29:14.319Z,7.87
2022-11-24T04:30:14.331Z,7.88
2022-11-24T04:31:14.392Z,7.88
2022-11-24T04:32:14.311Z,7.88
2022-11-24T04:33:14.286Z,7.88
2022-11-24T04:34:14.265Z,7.87
2022-11-24T04:35:14.273Z,7.87
2022-11-24T04:36:14.262Z,7.86
2022-11-24T04:37:14.240Z,7.85
2022-11-24T04:38:14.221Z,7.84
2022-11-24T04:39:22.852Z,7.84
2022-11-24T04:40:15.202Z,7.83
2022-11-24T04:41:14.188Z,7.83
2022-11-24T04:42:14.223Z,7.82
2022-11-24T04:43:14.159Z,7.82
2022-11-24T04:44:14.154Z,7.83
2022-11-24T04:45:14.154Z,7.83
2022-11-24T04:46:14.240Z,7.85
2022-11-24T04:47:14.126Z,7.86
2022-11-24T04:48:14.149Z,7.87
2022-11-24T04:49:14.099Z,7.89
2022-11-24T04:50:14.074Z,7.91
2022-11-24T04:51:14.061Z,7.94
2022-11-24T04:52:14.070Z,7.95
2022-11-24T04:53:14.060Z,7.96
2022-11-24T04:54:14.027Z,7.97
2022-11-24T04:55:14.012Z,7.98
2022-11-24T04:56:14.016Z,7.99
2022-11-24T04:57:13.987Z,8.00
2022-11-24T04:58:14.024Z,8.00
2022-11-24T04:59:14.033Z,8.01
2022-11-24T05:00:13.972Z,8.01
2022-11-24T05:01:14.009Z,8.02
2022-11-24T05:02:13.991Z,8.03
2022-11-24T05:03:13.941Z,8.04
2022-11-24T05:04:13.962Z,8.05
2022-11-24T05:05:13.904Z,8.06
2022-11-24T05:06:13.891Z,8.07
2022-11-24T05:07:18.450Z,8.08
2022-11-24T05:08:14.898Z,8.09
2022-11-24T05:09:13.856Z,8.11
2022-11-24T05:10:13.861Z,8.12
2022-11-24T05:11:13.850Z,8.12
2022-11-24T05:12:13.823Z,8.13
2022-11-24T05:13:13.810Z,8.14
2022-11-24T05:14:13.851Z,8.15
2022-11-24T05:15:13.793Z,8.15
2022-11-24T05:16:13.861Z,8.14
2022-11-24T05:17:13.765Z,8.14
2022-11-24T05:18:13.765Z,8.14
2022-11-24T05:19:13.743Z,8.14
2022-11-24T05:20:13.765Z,8.13
2022-11-24T05:21:13.746Z,8.13
2022-11-24T05:22:13.721Z,8.13
2022-11-24T05:23:13.689Z,8.12
2022-11-24T05:24:13.702Z,8.12
2022-11-24T05:25:13.678Z,8.12
2022-11-24T05:26:13.679Z,8.11
2022-11-24T05:27:13.656Z,8.11
2022-11-24T05:28:13.668Z,8.11
2022-11-24T05:29:13.624Z,8.10
2022-11-24T05:30:13.622Z,8.10
2022-11-24T05:31:13.638Z,8.09
2022-11-24T05:32:13.608Z,8.09
2022-11-24T05:33:13.573Z,8.09
2022-11-24T05:34:13.578Z,8.09
2022-11-24T05:35:13.553Z,8.09
2022-11-24T05:36:13.552Z,8.08
2022-11-24T05:37:13.560Z,8.08
2022-11-24T05:38:13.551Z,8.08
2022-11-24T05:39:13.503Z,8.09
2022-11-24T05:40:13.597Z,8.09
2022-11-24T05:41:13.502Z,8.09
2022-11-24T05:42:13.533Z,8.09
2022-11-24T05:43:13.483Z,8.10
2022-11-24T05:44:13.501Z,8.11
2022-11-24T05:45:13.431Z,8.11
2022-11-24T05:46:13.494Z,8.12
2022-11-24T05:47:13.414Z,8.13
2022-11-24T05:48:13.440Z,8.14
2022-11-24T05:49:13.394Z,8.14
2022-11-24T05:50:13.404Z,8.15
2022-11-24T05:51:13.364Z,8.15
2022-11-24T05:52:13.362Z,8.14
2022-11-24T05:53:13.376Z,8.14
2022-11-24T05:54:13.353Z,8.14
2022-11-24T05:55:13.321Z,8.15
2022-11-24T05:56:13.313Z,8.16
2022-11-24T05:57:13.299Z,8.17
2022-11-24T05:58:13.292Z,8.19
2022-11-24T05:59:13.281Z,8.20
2022-11-24T06:00:13.298Z,8.21
2022-11-24T06:01:13.250Z,8.22
2022-11-24T06:02:13.363Z,8.23
2022-11-24T06:03:13.300Z,8.23
2022-11-24T06:04:13.233Z,8.23
2022-11-24T06:05:13.213Z,8.24
2022-11-24T06:06:13.219Z,8.24
2022-11-24T06:07:13.212Z,8.24
2022-11-24T06:08:13.187Z,8.24
2022-11-24T06:09:13.158Z,8.23
2022-11-24T06:10:13.183Z,8.23
2022-11-24T06:11:13.128Z,8.22
2022-11-24T06:12:13.138Z,8.21
2022-11-24T06:13:13.159Z,8.20
2022-11-24T06:14:13.115Z,8.19
2022-11-24T06:15:13.075Z,8.18
2022-11-24T06:16:13.185Z,8.17
2022-11-24T06:17:13.055Z,8.17
2022-11-24T06:18:13.063Z,8.16
2022-11-24T06:19:13.048Z,8.15
2022-11-24T06:20:13.045Z,8.15
2022-11-24T06:21:13.023Z,8.13
2022-11-24T06:22:13.045Z,8.12
2022-11-24T06:23:12.986Z,8.10
2022-11-24T06:24:13.004Z,8.09
2022-11-24T06:25:12.983Z,8.08
2022-11-24T06:26:12.994Z,8.07
2022-11-24T06:27:12.962Z,8.06
2022-11-24T06:28:12.956Z,8.05
2022-11-24T06:29:12.931Z,8.03
2022-11-24T06:30:12.927Z,8.02
2022-11-24T06:31:12.958Z,8.01
2022-11-24T06:32:12.932Z,7.99
2022-11-24T06:33:12.867Z,7.98
2022-11-24T06:34:12.891Z,7.97
2022-11-24T06:35:12.862Z,7.96
2022-11-24T06:36:12.871Z,7.94
2022-11-24T06:37:12.841Z,7.92
2022-11-24T06:38:12.850Z,7.91
2022-11-24T06:39:12.832Z,7.89
2022-11-24T06:40:12.808Z,7.88
2022-11-24T06:41:12.783Z,7.86
2022-11-24T06:42:12.878Z,7.85
2022-11-24T06:43:12.760Z,7.83
2022-11-24T06:44:12.772Z,7.82
2022-11-24T06:45:12.744Z,7.81
2022-11-24T06:46:12.809Z,7.79
2022-11-24T06:47:12.729Z,7.78
2022-11-24T06:48:12.730Z,7.76
2022-11-24T06:49:12.707Z,7.75
2022-11-24T06:50:12.696Z,7.74
2022-11-24T06:51:12.673Z,7.73
2022-11-24T06:52:12.714Z,7.72
2022-11-24T06:53:12.660Z,7.72
2022-11-24T06:54:12.653Z,7.72
2022-11-24T06:55:12.639Z,7.72
2022-11-24T06:56:16.125Z,7.72
2022-11-24T06:57:12.601Z,7.71
2022-11-24T06:58:12.602Z,7.71
2022-11-24T06:59:12.640Z,7.70
2022-11-24T07:00:12.585Z,7.70
2022-11-24T07:01:12.619Z,7.70
2022-11-24T07:02:12.685Z,7.69
2022-11-24T07:03:12.634Z,7.69
2022-11-24T07:04:12.541Z,7.69
2022-11-24T07:05:12.513Z,7.68
2022-11-24T07:06:12.511Z,7.67
2022-11-24T07:07:12.610Z,7.67
2022-11-24T07:08:17.569Z,7.66
2022-11-24T07:09:13.467Z,7.65
2022-11-24T07:10:12.461Z,7.64
2022-11-24T07:11:12.435Z,7.64
2022-11-24T07:12:12.540Z,7.63
2022-11-24T07:13:12.407Z,7.62
2022-11-24T07:14:12.421Z,7.62
2022-11-24T07:15:12.411Z,7.61
2022-11-24T07:16:12.438Z,7.61
2022-11-24T07:17:12.365Z,7.60
2022-11-24T07:18:12.395Z,7.59
2022-11-24T07:19:12.341Z,7.59
2022-11-24T07:20:12.352Z,7.58
2022-11-24T07:21:12.341Z,7.58
2022-11-24T07:22:12.418Z,7.57
2022-11-24T07:23:12.298Z,7.57
2022-11-24T07:24:12.300Z,7.56
2022-11-24T07:25:12.270Z,7.56
2022-11-24T07:26:12.269Z,7.55
2022-11-24T07:27:12.271Z,7.55
2022-11-24T07:28:12.273Z,7.55
2022-11-24T07:29:12.219Z,7.55
2022-11-24T07:30:12.252Z,7.55
2022-11-24T07:31:12.449Z,7.55
2022-11-24T07:32:12.263Z,7.55
2022-11-24T07:33:12.175Z,7.55
2022-11-24T07:34:12.183Z,7.56
2022-11-24T07:35:12.157Z,7.56
2022-11-24T07:36:12.172Z,7.57
2022-11-24T07:37:12.152Z,7.57
2022-11-24T07:38:12.129Z,7.57
2022-11-24T07:39:12.117Z,7.58
2022-11-24T07:40:12.119Z,7.58
2022-11-24T07:41:12.126Z,7.58
2022-11-24T07:42:12.136Z,7.58
2022-11-24T07:43:17.138Z,7.59
2022-11-24T07:44:13.063Z,7.59
2022-11-24T07:45:12.050Z,7.59
2022-11-24T07:46:12.074Z,7.60
2022-11-24T07:47:12.039Z,7.60
2022-11-24T07:48:12.019Z,7.60
2022-11-24T07:49:12.034Z,7.60
2022-11-24T07:50:12.018Z,7.60
2022-11-24T07:51:12.014Z,7.59
2022-11-24T07:52:11.986Z,7.59
2022-11-24T07:53:11.965Z,7.58
2022-11-24T07:54:11.945Z,7.57
2022-11-24T07:55:11.919Z,7.57
2022-11-24T07:56:11.942Z,7.57
2022-11-24T07:57:11.934Z,7.57
2022-11-24T07:58:11.919Z,7.57
2022-11-24T07:59:11.884Z,7.57
2022-11-24T08:00:11.888Z,7.57
2022-11-24T08:01:11.990Z,7.57
2022-11-24T08:02:11.909Z,7.57
2022-11-24T08:03:11.869Z,7.57
2022-11-24T08:04:11.960Z,7.57
2022-11-24T08:05:11.821Z,7.58
2022-11-24T08:06:32.289Z,7.58
2022-11-24T08:07:12.838Z,7.59
2022-11-24T08:08:11.788Z,7.59
2022-11-24T08:09:11.779Z,7.60
2022-11-24T08:10:11.764Z,7.61
2022-11-24T08:11:11.751Z,7.62
2022-11-24T08:12:11.739Z,7.62
2022-11-24T08:13:11.714Z,7.63
2022-11-24T08:14:11.732Z,7.63
2022-11-24T08:15:11.865Z,7.64
2022-11-24T08:16:11.726Z,7.64
2022-11-24T08:17:11.719Z,7.64
2022-11-24T08:18:11.683Z,7.64
2022-11-24T08:19:11.685Z,7.65
2022-11-24T08:20:11.669Z,7.65
2022-11-24T08:21:11.628Z,7.66
2022-11-24T08:22:11.626Z,7.66
2022-11-24T08:23:11.604Z,7.67
2022-11-24T08:24:11.642Z,7.67
2022-11-24T08:25:11.606Z,7.68
2022-11-24T08:26:11.585Z,7.69
2022-11-24T08:27:11.554Z,7.69
2022-11-24T08:28:11.582Z,7.71
2022-11-24T08:29:11.523Z,7.72
2022-11-24T08:30:11.538Z,7.73
2022-11-24T08:31:11.524Z,7.74
2022-11-24T08:32:11.740Z,7.75
2022-11-24T08:33:11.505Z,7.78
2022-11-24T08:34:11.485Z,7.85
2022-11-24T08:35:14.768Z,7.97
2022-11-24T08:36:11.452Z,8.12
2022-11-24T08:37:11.444Z,8.27
2022-11-24T08:38:11.431Z,8.41
2022-11-24T08:39:11.413Z,8.52
2022-11-24T08:40:11.436Z,8.64
2022-11-24T08:41:11.382Z,8.80
2022-11-24T08:42:11.383Z,9.01
2022-11-24T08:43:11.394Z,9.23
2022-11-24T08:44:11.350Z,9.47
2022-11-24T08:45:20.288Z,9.71
2022-11-24T08:46:12.391Z,9.94
2022-11-24T08:47:11.326Z,10.14
2022-11-24T08:48:11.306Z,10.26
2022-11-24T08:49:11.329Z,10.30
2022-11-24T08:50:11.287Z,10.29
2022-11-24T08:51:11.286Z,10.25
2022-11-24T08:52:11.259Z,10.19
2022-11-24T08:53:11.295Z,10.13
2022-11-24T08:54:11.234Z,10.07
2022-11-24T08:55:11.254Z,10.00
2022-11-24T08:56:11.250Z,9.93
2022-11-24T08:57:11.217Z,9.88
2022-11-24T08:58:11.191Z,9.84
2022-11-24T08:59:11.217Z,9.82
2022-11-24T09:00:11.162Z,9.81
2022-11-24T09:01:11.254Z,9.81
2022-11-24T09:02:11.162Z,9.80
2022-11-24T09:03:11.148Z,9.79
2022-11-24T09:04:11.215Z,9.77
2022-11-24T09:05:43.242Z,9.74
2022-11-24T09:06:12.106Z,9.72
2022-11-24T09:07:11.173Z,9.72
2022-11-24T09:08:11.084Z,9.72
2022-11-24T09:09:11.107Z,9.73
2022-11-24T09:10:11.058Z,9.75
2022-11-24T09:11:11.048Z,9.77
2022-11-24T09:12:14.376Z,9.79
2022-11-24T09:13:11.043Z,9.81
2022-11-24T09:14:11.020Z,9.84
2022-11-24T09:15:11.012Z,9.85
2022-11-24T09:16:10.973Z,9.85
2022-11-24T09:17:11.005Z,9.84
2022-11-24T09:18:10.988Z,9.83
2022-11-24T09:19:10.979Z,9.81
2022-11-24T09:20:10.921Z,9.79
2022-11-24T09:21:10.967Z,9.77
2022-11-24T09:22:10.949Z,9.77
2022-11-24T09:23:10.912Z,9.77
2022-11-24T09:24:10.939Z,9.77
2022-11-24T09:25:10.910Z,9.75
2022-11-24T09:26:10.900Z,9.73
2022-11-24T09:27:10.886Z,9.73
2022-11-24T09:28:10.836Z,9.73
2022-11-24T09:29:10.860Z,9.73
2022-11-24T09:30:10.818Z,9.73
2022-11-24T09:31:10.881Z,9.74
2022-11-24T09:32:10.804Z,9.75
2022-11-24T09:33:10.797Z,9.76
2022-11-24T09:34:10.763Z,9.78
2022-11-24T09:35:10.801Z,9.81
2022-11-24T09:36:10.757Z,9.84
2022-11-24T09:37:10.766Z,9.87
2022-11-24T09:38:10.721Z,9.90
2022-11-24T09:39:10.735Z,9.92
2022-11-24T09:40:10.710Z,9.93
2022-11-24T09:41:10.719Z,9.94
2022-11-24T09:42:10.685Z,9.96
2022-11-24T09:43:10.692Z,9.97
2022-11-24T09:44:10.652Z,9.99
2022-11-24T09:45:10.665Z,9.99
2022-11-24T09:46:10.674Z,9.97
2022-11-24T09:47:10.653Z,9.96
2022-11-24T09:48:10.636Z,9.96
2022-11-24T09:49:10.611Z,9.98
2022-11-24T09:50:10.580Z,10.01
2022-11-24T09:51:10.582Z,10.05
2022-11-24T09:52:10.583Z,10.10
2022-11-24T09:53:10.570Z,10.14
2022-11-24T09:54:10.556Z,10.17
2022-11-24T09:55:10.581Z,10.21
2022-11-24T09:56:10.518Z,10.24
2022-11-24T09:57:10.515Z,10.28
2022-11-24T09:58:10.531Z,10.33
2022-11-24T09:59:10.505Z,10.37
2022-11-24T10:00:10.479Z,10.41
2022-11-24T10:01:10.596Z,10.44
2022-11-24T10:02:10.445Z,10.46
2022-11-24T10:03:10.468Z,10.48
2022-11-24T10:04:10.437Z,10.50
2022-11-24T10:05:10.489Z,10.51
2022-11-24T10:06:10.422Z,10.53
2022-11-24T10:07:10.451Z,10.54
2022-11-24T10:08:10.414Z,10.56
2022-11-24T10:09:10.400Z,10.58
2022-11-24T10:10:10.350Z,10.60
2022-11-24T10:11:10.373Z,10.62
2022-11-24T10:12:10.333Z,10.63
2022-11-24T10:13:10.334Z,10.65
2022-11-24T10:14:10.343Z,10.67
2022-11-24T10:15:10.313Z,10.69
2022-11-24T10:16:10.314Z,10.71
2022-11-24T10:17:10.333Z,10.72
2022-11-24T10:18:16.244Z,10.74
2022-11-24T10:19:11.298Z,10.75
2022-11-24T10:20:10.235Z,10.76
2022-11-24T10:21:10.258Z,10.75
2022-11-24T10:22:10.220Z,10.73
2022-11-24T10:23:10.220Z,10.73
2022-11-24T10:24:10.209Z,10.73
2022-11-24T10:25:10.212Z,10.75
2022-11-24T10:26:10.173Z,10.77
2022-11-24T10:27:10.193Z,10.79
2022-11-24T10:28:10.144Z,10.80
2022-11-24T10:29:10.141Z,10.82
2022-11-24T10:30:10.122Z,10.83
2022-11-24T10:31:10.181Z,10.85
2022-11-24T10:32:10.083Z,10.84
2022-11-24T10:33:10.101Z,10.83
2022-11-24T10:34:10.096Z,10.82
2022-11-24T10:35:10.088Z,10.82
2022-11-24T10:36:10.055Z,10.83
2022-11-24T10:37:10.081Z,10.85
2022-11-24T10:38:10.023Z,10.86
2022-11-24T10:39:10.034Z,10.87
2022-11-24T10:40:17.201Z,10.89
2022-11-24T10:41:11.017Z,10.90
2022-11-24T10:42:09.990Z,10.91
2022-11-24T10:43:10.007Z,10.91
2022-11-24T10:44:09.964Z,10.92
2022-11-24T10:45:09.963Z,10.93
2022-11-24T10:46:10.027Z,10.93
2022-11-24T10:47:09.966Z,10.94
2022-11-24T10:48:09.917Z,10.95
2022-11-24T10:49:09.942Z,10.94
2022-11-24T10:50:09.926Z,10.93
2022-11-24T10:51:09.895Z,10.92
2022-11-24T10:52:09.858Z,10.92
2022-11-24T10:53:09.882Z,10.94
2022-11-24T10:54:09.856Z,10.97
2022-11-24T10:55:09.857Z,10.99
2022-11-24T10:56:09.833Z,11.02
2022-11-24T10:57:09.817Z,11.03
2022-11-24T10:58:09.791Z,11.05
2022-11-24T10:59:09.837Z,11.06
2022-11-24T11:00:09.791Z,11.06
2022-11-24T11:01:09.897Z,11.07
2022-11-24T11:02:09.843Z,11.08
2022-11-24T11:03:09.874Z,11.09
2022-11-24T11:04:09.771Z,11.10
2022-11-24T11:05:09.776Z,11.10
2022-11-24T11:06:09.722Z,11.10
2022-11-24T11:07:09.792Z,11.10
2022-11-24T11:08:09.732Z,11.11
2022-11-24T11:09:09.702Z,11.10
2022-11-24T11:10:09.657Z,11.11
2022-11-24T11:11:09.656Z,11.11
2022-11-24T11:12:28.055Z,11.10
2022-11-24T11:13:10.641Z,11.07
2022-11-24T11:14:09.613Z,11.04
2022-11-24T11:15:09.648Z,11.00
2022-11-24T11:16:09.640Z,10.98
2022-11-24T11:17:09.591Z,10.97
2022-11-24T11:18:09.574Z,10.99
2022-11-24T11:19:33.262Z,11.01
2022-11-24T11:20:10.566Z,11.02
2022-11-24T11:21:09.552Z,11.03
2022-11-24T11:22:09.512Z,11.03
2022-11-24T11:23:09.590Z,11.04
2022-11-24T11:24:09.523Z,11.04
2022-11-24T11:25:09.524Z,11.04
2022-11-24T11:26:09.476Z,11.04
2022-11-24T11:27:09.494Z,11.03
2022-11-24T11:28:13.678Z,11.03
2022-11-24T11:31:16.545Z,11.00
2022-11-24T11:34:18.191Z,11.00
2022-11-24T11:35:10.385Z,11.01
2022-11-24T11:36:09.379Z,11.01
2022-11-24T11:37:09.370Z,11.00
2022-11-24T11:38:09.340Z,10.99
2022-11-24T11:39:09.336Z,10.99
2022-11-24T11:40:09.312Z,10.98
2022-11-24T11:41:09.312Z,10.97
2022-11-24T11:42:09.303Z,10.96
2022-11-24T11:43:09.309Z,10.95
2022-11-24T11:44:09.295Z,10.94
2022-11-24T11:45:09.305Z,10.93
2022-11-24T11:46:09.336Z,10.93
2022-11-24T11:47:09.304Z,10.93
2022-11-24T11:48:09.250Z,10.93
2022-11-24T11:49:09.240Z,10.94
2022-11-24T11:50:09.202Z,10.94
2022-11-24T11:51:23.247Z,10.95
2022-11-24T11:52:10.187Z,10.95
2022-11-24T11:53:09.185Z,10.95
2022-11-24T11:54:09.166Z,10.95
2022-11-24T11:55:09.173Z,10.95
2022-11-24T11:56:09.145Z,10.94
2022-11-24T11:57:09.148Z,10.93
2022-11-24T11:58:09.106Z,10.92
2022-11-24T11:59:09.100Z,10.91
2022-11-24T12:00:09.085Z,10.90
2022-11-24T12:01:09.077Z,10.89
2022-11-24T12:02:09.188Z,10.88
2022-11-24T12:03:09.145Z,10.88
2022-11-24T12:04:09.163Z,10.88
2022-11-24T12:05:09.058Z,10.89
2022-11-24T12:06:09.005Z,10.89
2022-11-24T12:07:09.037Z,10.89
2022-11-24T12:08:10.907Z,10.88
2022-11-24T12:09:24.225Z,10.89
2022-11-24T12:10:09.977Z,10.89
2022-11-24T12:11:08.960Z,10.90
2022-11-24T12:12:08.956Z,10.90
2022-11-24T12:13:08.970Z,10.89
2022-11-24T12:14:08.923Z,10.88
2022-11-24T12:15:11.044Z,10.88
2022-11-24T12:16:09.005Z,10.89
2022-11-24T12:17:08.897Z,10.89
2022-11-24T12:18:26.741Z,10.90
2022-11-24T12:19:09.878Z,10.90
2022-11-24T12:20:08.852Z,10.91
2022-11-24T12:21:08.871Z,10.91
2022-11-24T12:22:08.821Z,10.92
2022-11-24T12:23:08.838Z,10.93
2022-11-24T12:24:08.820Z,10.95
2022-11-24T12:25:08.802Z,10.96
2022-11-24T12:26:08.768Z,10.97
2022-11-24T12:27:08.787Z,10.98
2022-11-24T12:28:08.768Z,11.00
2022-11-24T12:29:08.764Z,11.00
2022-11-24T12:30:08.721Z,11.00
2022-11-24T12:31:08.818Z,11.01
2022-11-24T12:32:08.708Z,11.01
2022-11-24T12:33:08.718Z,11.02
2022-11-24T12:34:08.687Z,11.04
2022-11-24T12:35:08.702Z,11.07
2022-11-24T12:36:08.680Z,11.08
2022-11-24T12:37:08.661Z,11.09
2022-11-24T12:38:08.632Z,11.10
2022-11-24T12:39:08.641Z,11.11
2022-11-24T12:40:08.612Z,11.11
2022-11-24T12:42:09.599Z,11.13
2022-11-24T12:43:08.604Z,11.15
2022-11-24T12:44:08.570Z,11.17
2022-11-24T12:45:08.574Z,11.18
2022-11-24T12:46:12.529Z,11.18
2022-11-24T12:47:09.613Z,11.16
2022-11-24T12:48:08.521Z,11.15
2022-11-24T12:49:08.525Z,11.14
2022-11-24T12:50:08.512Z,11.14
2022-11-24T12:51:08.511Z,11.14
2022-11-24T12:52:08.507Z,11.13
2022-11-24T12:53:08.474Z,11.14
2022-11-24T12:54:08.471Z,11.14
2022-11-24T12:55:08.477Z,11.14
2022-11-24T12:56:08.491Z,11.13
2022-11-24T12:57:08.458Z,11.13
2022-11-24T12:58:11.277Z,11.12
2022-11-24T12:59:08.393Z,11.12
2022-11-24T13:00:08.390Z,11.11
2022-11-24T13:01:12.988Z,11.10
2022-11-24T13:02:09.440Z,11.09
2022-11-24T13:03:08.415Z,11.08
2022-11-24T13:04:08.381Z,11.07
2022-11-24T13:05:08.325Z,11.07
2022-11-24T13:06:08.323Z,11.07
2022-11-24T13:07:08.401Z,11.07
2022-11-24T13:08:08.305Z,11.07
2022-11-24T13:09:08.284Z,11.05
2022-11-24T13:10:08.284Z,11.03
2022-11-24T13:11:08.258Z,11.01
2022-11-24T13:12:08.254Z,11.00
2022-11-24T13:13:08.244Z,10.99
2022-11-24T13:14:08.236Z,10.99
2022-11-24T13:15:15.408Z,10.98
2022-11-24T13:16:48.474Z,10.98